Isle of Eigg, United Kingdom
Current Conditions -  °F | °C
As of 2:20 PM on Thursday 27 Nov 2014 (Local Time) from EGPU Reporting Station
Few Clouds Few Clouds  
Wind Chill: 42°   Ceiling: Unl
Heat Index: 48°   Visibility: 6mi
Dew Point: 41°   Wind: 17mph
Humidity: 76%   Direction: 120°ESE
Pressure: 29.53"   Gusts: NA
Location:  56.9°N, 6.14°W
Report Text: EGPU 271420Z 12015KT 9999 FEW017 09/05 Q1000
Loading
Personal Weather Stations






























Interactive Weather Map New forecast layout! Learn more

10-Day Weather Forecast

Advertisements
Track Severe Weather on mobile